createdAt,value
2018-07-04T00:02:04.348Z,16.20
2018-07-04T00:04:43.959Z,16.20
2018-07-04T00:07:23.629Z,16.20
2018-07-04T00:10:03.316Z,16.20
2018-07-04T00:12:42.876Z,16.30
2018-07-04T00:15:22.567Z,16.40
2018-07-04T00:18:02.113Z,16.40
2018-07-04T00:20:41.705Z,16.40
2018-07-04T00:23:21.377Z,16.40
2018-07-04T00:26:01.038Z,16.40
2018-07-04T00:28:40.606Z,16.40
2018-07-04T00:31:20.207Z,16.50
2018-07-04T00:33:59.874Z,16.50
2018-07-04T00:36:39.614Z,16.50
2018-07-04T00:39:19.230Z,16.50
2018-07-04T00:41:58.818Z,16.50
2018-07-04T00:44:38.221Z,16.50
2018-07-04T00:47:17.874Z,16.50
2018-07-04T00:49:57.450Z,16.50
2018-07-04T00:52:37.058Z,16.50
2018-07-04T00:55:16.538Z,16.50
2018-07-04T00:57:56.078Z,16.50
2018-07-04T01:00:35.662Z,16.50
2018-07-04T01:03:15.234Z,16.50
2018-07-04T01:05:54.808Z,16.50
2018-07-04T01:08:34.306Z,16.50
2018-07-04T01:11:13.874Z,16.50
2018-07-04T01:13:53.458Z,16.60
2018-07-04T01:16:33.023Z,16.60
2018-07-04T01:19:12.591Z,16.60
2018-07-04T01:21:52.081Z,16.60
2018-07-04T01:24:31.678Z,16.60
2018-07-04T01:27:11.254Z,16.50
2018-07-04T01:29:50.798Z,16.50
2018-07-04T01:32:30.468Z,16.50
2018-07-04T01:35:10.174Z,16.40
2018-07-04T01:37:49.765Z,16.40
2018-07-04T01:40:29.360Z,16.40
2018-07-04T01:43:09.135Z,16.30
2018-07-04T01:45:48.878Z,16.30
2018-07-04T01:48:28.479Z,16.30
2018-07-04T01:51:08.074Z,16.20
2018-07-04T01:53:47.590Z,16.20
2018-07-04T01:56:27.242Z,16.10
2018-07-04T01:59:06.920Z,16.10
2018-07-04T02:01:46.515Z,16.10
2018-07-04T02:04:26.090Z,16.10
2018-07-04T02:07:05.606Z,16.00
2018-07-04T02:09:45.130Z,16.00
2018-07-04T02:12:24.630Z,16.00
2018-07-04T02:15:04.174Z,16.00
2018-07-04T02:17:43.982Z,16.00
2018-07-04T02:20:23.789Z,16.00
2018-07-04T02:23:03.706Z,16.00
2018-07-04T02:25:43.412Z,16.00
2018-07-04T02:28:23.148Z,15.90
2018-07-04T02:31:02.730Z,15.80
2018-07-04T02:33:42.418Z,15.80
2018-07-04T02:36:22.010Z,15.80
2018-07-04T02:39:01.504Z,15.70
2018-07-04T02:41:41.194Z,15.70
2018-07-04T02:44:20.815Z,15.70
2018-07-04T02:47:00.439Z,15.70
2018-07-04T02:49:40.015Z,15.70
2018-07-04T02:52:19.639Z,15.70
2018-07-04T02:54:59.278Z,15.70
2018-07-04T02:57:38.923Z,15.80
2018-07-04T03:00:18.538Z,15.80
2018-07-04T03:02:58.122Z,15.80
2018-07-04T03:05:37.746Z,15.70
2018-07-04T03:10:51.061Z,15.70
2018-07-04T03:13:30.559Z,15.80
2018-07-04T03:16:10.271Z,15.80
2018-07-04T03:18:49.961Z,15.80
2018-07-04T03:21:29.522Z,15.80
2018-07-04T03:24:09.065Z,15.80
2018-07-04T03:26:48.801Z,15.80
2018-07-04T03:29:28.360Z,15.80
2018-07-04T03:32:07.885Z,15.80
2018-07-04T03:34:47.374Z,15.80
2018-07-04T03:37:27.167Z,15.80
2018-07-04T03:40:06.678Z,15.80
2018-07-04T03:42:46.275Z,15.90
2018-07-04T03:45:25.774Z,15.90
2018-07-04T03:48:05.343Z,15.90
2018-07-04T03:50:44.960Z,15.90
2018-07-04T03:53:24.578Z,15.90
2018-07-04T03:56:04.271Z,15.90
2018-07-04T03:58:44.141Z,15.90
2018-07-04T04:01:23.705Z,15.90
2018-07-04T04:04:03.593Z,16.00
2018-07-04T04:06:43.082Z,16.00
2018-07-04T04:09:22.746Z,16.10
2018-07-04T04:12:02.771Z,16.20
2018-07-04T04:14:42.374Z,16.30
2018-07-04T04:17:21.916Z,16.40
2018-07-04T04:20:01.558Z,16.50
2018-07-04T04:22:41.067Z,16.60
2018-07-04T04:25:20.787Z,16.70
2018-07-04T04:28:00.318Z,16.70
2018-07-04T04:30:39.870Z,16.80
2018-07-04T04:33:19.349Z,16.90
2018-07-04T04:35:58.964Z,16.90
2018-07-04T04:38:38.815Z,16.90
2018-07-04T04:41:18.343Z,16.90
2018-07-04T04:43:57.929Z,16.90
2018-07-04T04:46:37.518Z,17.00
2018-07-04T04:49:17.102Z,17.10
2018-07-04T04:51:56.724Z,17.10
2018-07-04T04:54:36.161Z,17.10
2018-07-04T04:57:15.688Z,17.20
2018-07-04T04:59:55.208Z,17.30
2018-07-04T05:02:34.697Z,17.30
2018-07-04T05:05:14.267Z,17.40
2018-07-04T05:07:53.803Z,17.40
2018-07-04T05:10:33.454Z,17.50
2018-07-04T05:13:13.124Z,17.60
2018-07-04T05:15:52.731Z,17.60
2018-07-04T05:18:32.394Z,17.80
2018-07-04T05:21:11.971Z,17.80
2018-07-04T05:23:51.563Z,17.90
2018-07-04T05:26:31.097Z,18.00
2018-07-04T05:29:10.590Z,18.10
2018-07-04T05:31:50.075Z,18.10
2018-07-04T05:34:29.782Z,18.20
2018-07-04T05:37:09.410Z,18.30
2018-07-04T05:39:49.102Z,18.30
2018-07-04T05:42:28.714Z,18.40
2018-07-04T05:45:08.410Z,18.50
2018-07-04T05:47:48.478Z,18.60
2018-07-04T05:50:28.103Z,18.70
2018-07-04T05:53:07.582Z,18.80
2018-07-04T05:55:47.279Z,18.80
2018-07-04T05:58:26.935Z,18.90
2018-07-04T06:01:06.422Z,18.90
2018-07-04T06:03:45.985Z,19.00
2018-07-04T06:06:25.614Z,19.10
2018-07-04T06:09:05.736Z,19.20
2018-07-04T06:11:45.398Z,19.30
2018-07-04T06:14:24.873Z,19.40
2018-07-04T06:17:04.542Z,19.40
2018-07-04T06:19:44.151Z,19.50
2018-07-04T06:22:23.762Z,19.60
2018-07-04T06:25:03.473Z,19.70
2018-07-04T06:27:43.084Z,19.80
2018-07-04T06:30:22.730Z,19.90
2018-07-04T06:33:02.378Z,20.00
2018-07-04T06:35:41.814Z,20.20
2018-07-04T06:38:09.145Z,20.30
2018-07-04T06:40:36.461Z,20.50
2018-07-04T06:43:03.796Z,20.70
2018-07-04T06:45:31.173Z,20.90
2018-07-04T06:47:58.479Z,21.00
2018-07-04T06:50:25.785Z,21.20
2018-07-04T06:52:53.122Z,21.30
2018-07-04T06:55:20.462Z,21.50
2018-07-04T06:57:47.762Z,21.70
2018-07-04T07:00:15.110Z,21.80
2018-07-04T07:02:42.433Z,21.90
2018-07-04T07:05:22.186Z,22.00
2018-07-04T07:08:01.839Z,22.10
2018-07-04T07:13:15.177Z,22.40
2018-07-04T07:15:54.896Z,22.40
2018-07-04T07:18:34.457Z,22.60
2018-07-04T07:21:14.083Z,22.60
2018-07-04T07:23:53.714Z,22.60
2018-07-04T07:26:33.291Z,22.70
2018-07-04T07:29:12.839Z,22.80
2018-07-04T07:31:52.432Z,23.00
2018-07-04T07:34:32.050Z,23.00
2018-07-04T07:37:11.628Z,23.20
2018-07-04T07:39:51.055Z,23.30
2018-07-04T07:42:30.609Z,23.40
2018-07-04T07:45:10.238Z,23.60
2018-07-04T07:47:49.859Z,23.70
2018-07-04T07:50:29.353Z,23.70
2018-07-04T07:53:09.102Z,23.80
2018-07-04T07:55:48.554Z,23.80
2018-07-04T07:58:28.134Z,23.90
2018-07-04T08:01:07.688Z,24.00
2018-07-04T08:03:47.198Z,24.00
2018-07-04T08:06:26.866Z,24.10
2018-07-04T08:09:06.519Z,24.10
2018-07-04T08:11:46.114Z,24.10
2018-07-04T08:14:25.739Z,24.20
2018-07-04T08:17:05.444Z,24.20
2018-07-04T08:19:45.021Z,24.30
2018-07-04T08:22:24.723Z,24.30
2018-07-04T08:25:04.356Z,24.30
2018-07-04T08:27:43.898Z,24.40
2018-07-04T08:30:23.578Z,24.40
2018-07-04T08:33:03.186Z,24.50
2018-07-04T08:35:42.700Z,24.60
2018-07-04T08:38:22.341Z,24.60
2018-07-04T08:41:01.870Z,24.80
2018-07-04T08:43:41.527Z,24.90
2018-07-04T08:46:21.054Z,25.00
2018-07-04T08:49:00.711Z,25.00
2018-07-04T08:51:40.423Z,25.00
2018-07-04T08:54:19.977Z,25.00
2018-07-04T08:56:59.806Z,25.00
2018-07-04T08:59:39.382Z,25.00
2018-07-04T09:02:19.031Z,25.00
2018-07-04T09:04:58.581Z,25.00
2018-07-04T09:07:38.219Z,24.90
2018-07-04T09:10:17.861Z,24.90
2018-07-04T09:12:57.414Z,25.00
2018-07-04T09:15:36.994Z,25.00
2018-07-04T09:18:16.662Z,25.20
2018-07-04T09:20:56.317Z,25.20
2018-07-04T09:23:36.058Z,25.30
2018-07-04T09:26:15.664Z,25.30
2018-07-04T09:28:55.225Z,25.30
2018-07-04T09:31:34.829Z,25.30
2018-07-04T09:34:14.586Z,25.30
2018-07-04T09:36:54.337Z,25.30
2018-07-04T09:39:33.946Z,25.20
2018-07-04T09:42:13.390Z,25.20
2018-07-04T09:44:53.001Z,25.20
2018-07-04T09:47:32.554Z,25.30
2018-07-04T09:50:12.247Z,25.40
2018-07-04T09:52:51.922Z,25.50
2018-07-04T09:55:31.575Z,25.60
2018-07-04T09:58:11.185Z,25.70
2018-07-04T10:00:56.158Z,25.90
2018-07-04T10:03:35.853Z,26.00
2018-07-04T10:06:15.578Z,26.20
2018-07-04T10:08:55.342Z,26.30
2018-07-04T10:11:34.922Z,26.40
2018-07-04T10:14:14.575Z,26.40
2018-07-04T10:16:54.155Z,26.50
2018-07-04T10:19:33.858Z,26.60
2018-07-04T10:22:13.585Z,26.70
2018-07-04T10:24:53.118Z,26.70
2018-07-04T10:27:32.858Z,26.70
2018-07-04T10:30:12.590Z,26.70
2018-07-04T10:32:52.206Z,26.60
2018-07-04T10:35:31.762Z,26.60
2018-07-04T10:38:11.322Z,26.50
2018-07-04T10:40:50.809Z,26.40
2018-07-04T10:43:30.446Z,26.40
2018-07-04T10:46:10.156Z,26.40
2018-07-04T10:48:49.645Z,26.40
2018-07-04T10:51:29.420Z,26.60
2018-07-04T10:54:09.162Z,26.60
2018-07-04T10:56:48.731Z,26.70
2018-07-04T10:59:28.487Z,26.70
2018-07-04T11:04:41.659Z,26.90
2018-07-04T11:07:21.566Z,27.00
2018-07-04T11:10:01.257Z,27.10
2018-07-04T11:12:40.875Z,27.00
2018-07-04T11:15:20.527Z,27.00
2018-07-04T11:18:00.173Z,27.00
2018-07-04T11:20:39.872Z,27.00
2018-07-04T11:23:19.456Z,27.00
2018-07-04T11:28:32.845Z,27.00
2018-07-04T11:31:12.438Z,27.10
2018-07-04T11:33:51.976Z,27.10
2018-07-04T11:36:31.621Z,27.10
2018-07-04T11:39:11.274Z,27.10
2018-07-04T11:41:51.090Z,27.20
2018-07-04T11:44:30.877Z,27.30
2018-07-04T11:46:58.217Z,27.40
2018-07-04T11:49:25.535Z,27.30
2018-07-04T11:51:53.002Z,27.30
2018-07-04T11:54:20.403Z,27.30
2018-07-04T11:56:47.739Z,27.30
2018-07-04T11:59:15.067Z,27.20
2018-07-04T12:01:42.505Z,27.20
2018-07-04T12:04:22.062Z,27.20
2018-07-04T12:07:01.915Z,27.30
2018-07-04T12:09:29.366Z,27.30
2018-07-04T12:11:56.778Z,27.40
2018-07-04T12:14:24.151Z,27.40
2018-07-04T12:16:51.458Z,27.40
2018-07-04T12:19:18.797Z,27.40
2018-07-04T12:21:46.281Z,27.50
2018-07-04T12:24:13.582Z,27.60
2018-07-04T12:26:40.933Z,27.70
2018-07-04T12:29:08.362Z,27.80
2018-07-04T12:31:35.683Z,27.80
2018-07-04T12:34:03.042Z,27.80
2018-07-04T12:36:30.414Z,27.80
2018-07-04T12:38:57.712Z,27.90
2018-07-04T12:41:25.050Z,28.00
2018-07-04T12:43:52.474Z,28.00
2018-07-04T12:46:19.811Z,28.00
2018-07-04T12:48:47.115Z,28.10
2018-07-04T12:51:14.451Z,28.20
2018-07-04T12:53:41.785Z,28.20
2018-07-04T12:56:21.491Z,28.30
2018-07-04T12:59:01.019Z,28.40
2018-07-04T13:01:40.686Z,28.50
2018-07-04T13:04:20.411Z,28.50
2018-07-04T13:06:59.883Z,28.40
2018-07-04T13:09:39.566Z,28.30
2018-07-04T13:12:19.135Z,28.30
2018-07-04T13:14:58.630Z,28.30
2018-07-04T13:17:38.202Z,28.40
2018-07-04T13:20:17.894Z,28.40
2018-07-04T13:22:57.525Z,28.50
2018-07-04T13:25:37.071Z,28.60
2018-07-04T13:28:16.690Z,28.70
2018-07-04T13:30:56.292Z,28.80
2018-07-04T13:33:36.156Z,29.00
2018-07-04T13:36:15.719Z,28.80
2018-07-04T13:38:55.311Z,28.90
2018-07-04T13:41:34.790Z,28.90
2018-07-04T13:44:14.467Z,28.80
2018-07-04T13:46:54.015Z,28.80
2018-07-04T13:49:33.723Z,28.70
2018-07-04T13:52:13.490Z,28.60
2018-07-04T13:54:53.110Z,28.70
2018-07-04T13:57:32.651Z,28.70
2018-07-04T14:00:12.766Z,28.60
2018-07-04T14:02:53.072Z,28.70
2018-07-04T14:05:33.678Z,28.80
2018-07-04T14:08:13.582Z,28.90
2018-07-04T14:10:53.135Z,28.80
2018-07-04T14:13:32.760Z,28.70
2018-07-04T14:16:12.343Z,28.60
2018-07-04T14:18:52.561Z,28.60
2018-07-04T14:21:32.426Z,28.50
2018-07-04T14:24:12.178Z,28.40
2018-07-04T14:26:51.991Z,28.40
2018-07-04T14:29:32.011Z,28.40
2018-07-04T14:32:11.727Z,28.40
2018-07-04T14:34:51.322Z,28.40
2018-07-04T14:37:30.998Z,28.20
2018-07-04T14:40:11.405Z,28.10
2018-07-04T14:42:51.127Z,28.00
2018-07-04T14:45:30.704Z,28.10
2018-07-04T14:48:10.206Z,28.20
2018-07-04T14:50:51.006Z,28.30
2018-07-04T14:53:30.614Z,28.30
2018-07-04T14:56:10.198Z,28.30
2018-07-04T14:58:49.962Z,28.10
2018-07-04T15:01:29.714Z,28.20
2018-07-04T15:04:09.507Z,28.20
2018-07-04T15:06:49.046Z,28.40
2018-07-04T15:09:28.694Z,28.30
2018-07-04T15:12:08.394Z,28.40
2018-07-04T15:14:48.034Z,28.50
2018-07-04T15:17:27.577Z,28.70
2018-07-04T15:20:07.246Z,29.00
2018-07-04T15:22:46.886Z,29.10
2018-07-04T15:25:26.653Z,29.20
2018-07-04T15:28:06.228Z,29.20
2018-07-04T15:30:45.882Z,29.20
2018-07-04T15:33:25.335Z,29.00
2018-07-04T15:36:04.932Z,28.90
2018-07-04T15:38:44.507Z,28.90
2018-07-04T15:41:24.874Z,29.00
2018-07-04T15:44:04.459Z,29.10
2018-07-04T15:46:44.058Z,29.20
2018-07-04T15:49:23.822Z,29.40
2018-07-04T15:52:03.634Z,29.70
2018-07-04T15:54:43.374Z,30.00
2018-07-04T15:57:23.113Z,30.30
2018-07-04T16:00:02.685Z,30.60
2018-07-04T16:02:42.348Z,30.90
2018-07-04T16:05:22.047Z,31.50
2018-07-04T16:08:01.803Z,32.00
2018-07-04T16:10:41.368Z,32.40
2018-07-04T16:13:21.008Z,33.10
2018-07-04T16:16:00.570Z,33.80
2018-07-04T16:18:40.168Z,34.50
2018-07-04T16:21:19.725Z,35.10
2018-07-04T16:23:59.361Z,35.60
2018-07-04T16:26:38.963Z,36.20
2018-07-04T16:29:18.618Z,36.40
2018-07-04T16:31:58.194Z,36.40
2018-07-04T16:34:37.882Z,36.60
2018-07-04T16:37:17.603Z,36.50
2018-07-04T16:39:57.239Z,36.40
2018-07-04T16:42:36.885Z,36.50
2018-07-04T16:45:16.616Z,36.80
2018-07-04T16:47:56.186Z,37.10
2018-07-04T16:50:35.830Z,37.20
2018-07-04T16:53:15.455Z,37.20
2018-07-04T16:55:55.146Z,37.20
2018-07-04T16:58:34.834Z,36.80
2018-07-04T17:01:14.358Z,36.50
2018-07-04T17:03:53.932Z,36.10
2018-07-04T17:06:33.512Z,35.90
2018-07-04T17:09:13.094Z,35.70
2018-07-04T17:11:52.818Z,35.60
2018-07-04T17:14:32.446Z,35.30
2018-07-04T17:17:12.247Z,34.90
2018-07-04T17:19:52.046Z,34.60
2018-07-04T17:22:31.646Z,34.50
2018-07-04T17:25:11.202Z,34.30
2018-07-04T17:27:50.882Z,34.20
2018-07-04T17:30:30.494Z,34.10
2018-07-04T17:33:10.078Z,33.90
2018-07-04T17:35:49.659Z,33.70
2018-07-04T17:38:29.399Z,33.60
2018-07-04T17:41:09.135Z,33.60
2018-07-04T17:43:48.790Z,33.40
2018-07-04T17:46:28.666Z,33.20
2018-07-04T17:49:08.469Z,33.10
2018-07-04T17:51:48.011Z,32.80
2018-07-04T17:54:27.627Z,32.50
2018-07-04T17:57:07.167Z,32.10
2018-07-04T17:59:46.872Z,31.60
2018-07-04T18:02:26.498Z,30.60
2018-07-04T18:05:06.276Z,29.40
2018-07-04T18:07:46.062Z,28.30
2018-07-04T18:10:25.782Z,27.30
2018-07-04T18:13:05.341Z,26.50
2018-07-04T18:15:45.034Z,25.80
2018-07-04T18:18:24.658Z,25.20
2018-07-04T18:21:09.645Z,24.70
2018-07-04T18:23:49.201Z,24.40
2018-07-04T18:26:28.808Z,24.10
2018-07-04T18:29:08.376Z,23.80
2018-07-04T18:31:47.982Z,23.60
2018-07-04T18:34:27.626Z,23.40
2018-07-04T18:37:07.310Z,23.30
2018-07-04T18:39:46.856Z,23.30
2018-07-04T18:42:26.693Z,23.20
2018-07-04T18:45:06.114Z,23.10
2018-07-04T18:47:45.750Z,23.00
2018-07-04T18:50:25.210Z,22.90
2018-07-04T18:53:05.562Z,22.90
2018-07-04T18:55:45.074Z,22.80
2018-07-04T18:58:24.638Z,22.80
2018-07-04T19:01:04.471Z,22.70
2018-07-04T19:03:44.301Z,22.60
2018-07-04T19:06:24.048Z,22.50
2018-07-04T19:09:04.852Z,22.50
2018-07-04T19:11:44.675Z,22.40
2018-07-04T19:14:24.377Z,22.30
2018-07-04T19:17:04.068Z,22.20
2018-07-04T19:19:44.254Z,22.10
2018-07-04T19:22:23.950Z,21.90
2018-07-04T19:25:03.657Z,21.70
2018-07-04T19:27:43.546Z,21.50
2018-07-04T19:30:23.376Z,21.30
2018-07-04T19:33:03.016Z,21.20
2018-07-04T19:35:42.694Z,21.00
2018-07-04T19:38:22.397Z,20.90
2018-07-04T19:41:01.979Z,20.70
2018-07-04T19:43:41.590Z,20.60
2018-07-04T19:46:21.198Z,20.40
2018-07-04T19:49:00.866Z,20.20
2018-07-04T19:51:40.574Z,20.10
2018-07-04T19:54:20.289Z,20.00
2018-07-04T19:57:00.073Z,19.90
2018-07-04T19:59:39.765Z,19.80
2018-07-04T20:02:19.402Z,19.70
2018-07-04T20:04:58.862Z,19.60
2018-07-04T20:07:38.625Z,19.50
2018-07-04T20:10:18.334Z,19.40
2018-07-04T20:12:59.088Z,19.30
2018-07-04T20:15:38.527Z,19.30
2018-07-04T20:18:18.104Z,19.20
2018-07-04T20:20:57.815Z,19.20
2018-07-04T20:23:37.394Z,19.10
2018-07-04T20:26:16.962Z,19.00
2018-07-04T20:28:56.754Z,19.00
2018-07-04T20:31:36.515Z,18.90
2018-07-04T20:34:16.177Z,18.80
2018-07-04T20:36:55.874Z,18.80
2018-07-04T20:39:35.594Z,18.80
2018-07-04T20:44:48.922Z,18.60
2018-07-04T20:47:28.512Z,18.60
2018-07-04T20:50:08.135Z,18.50
2018-07-04T20:52:47.774Z,18.40
2018-07-04T20:55:27.324Z,18.40
2018-07-04T20:58:06.962Z,18.40
2018-07-04T21:00:46.690Z,18.30
2018-07-04T21:03:26.290Z,18.20
2018-07-04T21:06:05.895Z,18.20
2018-07-04T21:08:45.438Z,18.10
2018-07-04T21:11:25.014Z,18.10
2018-07-04T21:14:04.606Z,18.00
2018-07-04T21:16:44.654Z,18.00
2018-07-04T21:19:24.221Z,17.90
2018-07-04T21:22:03.870Z,17.90
2018-07-04T21:24:43.436Z,17.80
2018-07-04T21:27:23.085Z,17.80
2018-07-04T21:30:02.646Z,17.70
2018-07-04T21:32:42.253Z,17.70
2018-07-04T21:37:55.383Z,17.50
2018-07-04T21:40:34.943Z,17.50
2018-07-04T21:43:14.595Z,17.40
2018-07-04T21:45:54.342Z,17.40
2018-07-04T21:48:34.021Z,17.40
2018-07-04T21:51:13.706Z,17.30
2018-07-04T21:53:53.201Z,17.20
2018-07-04T21:56:32.803Z,17.20
2018-07-04T21:59:12.424Z,17.20
2018-07-04T22:01:51.913Z,17.10
2018-07-04T22:04:31.619Z,17.00
2018-07-04T22:07:11.051Z,17.00
2018-07-04T22:09:50.633Z,16.90
2018-07-04T22:12:30.043Z,17.00
2018-07-04T22:15:09.582Z,16.90
2018-07-04T22:17:49.163Z,16.90
2018-07-04T22:20:28.741Z,16.90
2018-07-04T22:23:08.341Z,16.80
2018-07-04T22:25:48.015Z,16.80
2018-07-04T22:28:27.514Z,16.80
2018-07-04T22:31:07.082Z,16.70
2018-07-04T22:33:46.970Z,16.60
2018-07-04T22:36:27.528Z,16.60
2018-07-04T22:39:07.277Z,16.50
2018-07-04T22:41:46.985Z,16.50
2018-07-04T22:44:26.547Z,16.40
2018-07-04T22:47:06.132Z,16.40
2018-07-04T22:49:45.674Z,16.30
2018-07-04T22:52:25.243Z,16.40
2018-07-04T22:55:04.799Z,16.40
2018-07-04T22:57:44.563Z,16.40
2018-07-04T23:00:24.050Z,16.40
2018-07-04T23:03:03.638Z,16.30
2018-07-04T23:05:43.215Z,16.30
2018-07-04T23:08:22.858Z,16.20
2018-07-04T23:11:02.290Z,16.20
2018-07-04T23:13:42.028Z,16.20
2018-07-04T23:16:22.066Z,16.20
2018-07-04T23:19:01.602Z,16.30
2018-07-04T23:21:41.161Z,16.30
2018-07-04T23:24:20.726Z,16.40
2018-07-04T23:27:00.318Z,16.40
2018-07-04T23:29:39.947Z,16.40
2018-07-04T23:32:19.466Z,16.40
2018-07-04T23:34:59.170Z,16.40
2018-07-04T23:37:38.878Z,16.40
2018-07-04T23:40:18.538Z,16.40
2018-07-04T23:42:58.133Z,16.40
2018-07-04T23:45:37.805Z,16.30
2018-07-04T23:48:17.580Z,16.30
2018-07-04T23:50:57.242Z,16.30
2018-07-04T23:53:36.741Z,16.20
2018-07-04T23:56:16.359Z,16.20
2018-07-04T23:58:55.981Z,16.20
